createdAt,value
2017-11-11T00:01:38.948Z,6.30
2017-11-11T00:04:06.403Z,6.30
2017-11-11T00:06:33.846Z,6.20
2017-11-11T00:09:02.055Z,6.20
2017-11-11T00:11:30.901Z,6.20
2017-11-11T00:13:58.351Z,6.20
2017-11-11T00:16:25.886Z,6.20
2017-11-11T00:18:53.326Z,6.20
2017-11-11T00:21:20.797Z,6.20
2017-11-11T00:23:48.237Z,6.20
2017-11-11T00:26:16.489Z,6.20
2017-11-11T00:28:43.937Z,6.20
2017-11-11T00:31:11.391Z,6.20
2017-11-11T00:33:38.841Z,6.10
2017-11-11T00:36:07.055Z,6.10
2017-11-11T00:38:34.541Z,6.10
2017-11-11T00:41:02.038Z,6.10
2017-11-11T00:43:29.480Z,6.10
2017-11-11T00:45:56.926Z,6.10
2017-11-11T00:48:24.381Z,6.10
2017-11-11T00:50:51.860Z,6.00
2017-11-11T00:53:19.322Z,5.90
2017-11-11T00:55:46.794Z,5.90
2017-11-11T00:58:14.721Z,5.90
2017-11-11T01:00:43.530Z,5.90
2017-11-11T01:03:11.806Z,5.90
2017-11-11T01:05:39.295Z,5.80
2017-11-11T01:08:07.530Z,5.80
2017-11-11T01:10:34.968Z,5.80
2017-11-11T01:13:03.200Z,5.80
2017-11-11T01:15:30.628Z,5.70
2017-11-11T01:17:58.890Z,5.70
2017-11-11T01:20:27.093Z,5.70
2017-11-11T01:22:54.553Z,5.70
2017-11-11T01:25:21.998Z,5.70
2017-11-11T01:27:49.484Z,5.70
2017-11-11T01:30:16.955Z,5.60
2017-11-11T01:32:44.385Z,5.60
2017-11-11T01:35:12.618Z,5.50
2017-11-11T01:37:40.064Z,5.50
2017-11-11T01:40:17.878Z,5.50
2017-11-11T01:42:45.358Z,5.50
2017-11-11T01:45:12.848Z,5.50
2017-11-11T01:47:40.277Z,5.50
2017-11-11T01:50:07.751Z,5.50
2017-11-11T01:52:35.202Z,5.50
2017-11-11T01:55:02.661Z,5.50
2017-11-11T01:57:30.152Z,5.50
2017-11-11T01:59:57.620Z,5.50
2017-11-11T02:02:25.255Z,5.50
2017-11-11T02:04:53.469Z,5.50
2017-11-11T02:07:21.249Z,5.50
2017-11-11T02:09:48.713Z,5.50
2017-11-11T02:12:16.191Z,5.60
2017-11-11T02:14:43.661Z,5.60
2017-11-11T02:17:11.154Z,5.60
2017-11-11T02:19:38.628Z,5.50
2017-11-11T02:22:06.070Z,5.50
2017-11-11T02:24:34.657Z,5.50
2017-11-11T02:27:02.860Z,5.40
2017-11-11T02:29:31.091Z,5.40
2017-11-11T02:31:58.522Z,5.40
2017-11-11T02:34:26.753Z,5.30
2017-11-11T02:36:54.214Z,5.30
2017-11-11T02:39:21.653Z,5.30
2017-11-11T02:41:49.105Z,5.30
2017-11-11T02:44:16.556Z,5.20
2017-11-11T02:46:44.013Z,5.20
2017-11-11T02:49:11.483Z,5.10
2017-11-11T02:51:38.947Z,5.20
2017-11-11T02:54:07.188Z,5.30
2017-11-11T02:56:34.625Z,5.30
2017-11-11T02:59:02.100Z,5.30
2017-11-11T03:01:29.541Z,5.20
2017-11-11T03:03:56.974Z,5.20
2017-11-11T03:06:24.433Z,5.10
2017-11-11T03:08:51.860Z,5.10
2017-11-11T03:11:19.314Z,5.10
2017-11-11T03:13:46.748Z,5.10
2017-11-11T03:16:14.209Z,5.10
2017-11-11T03:18:42.491Z,5.10
2017-11-11T03:21:10.689Z,5.10
2017-11-11T03:23:38.913Z,5.00
2017-11-11T03:26:06.373Z,5.00
2017-11-11T03:28:33.856Z,5.10
2017-11-11T03:31:01.297Z,5.00
2017-11-11T03:33:29.522Z,5.00
2017-11-11T03:35:56.990Z,5.00
2017-11-11T03:38:24.432Z,5.00
2017-11-11T03:40:52.657Z,4.90
2017-11-11T03:43:20.120Z,4.90
2017-11-11T03:45:48.325Z,4.90
2017-11-11T03:48:19.870Z,4.90
2017-11-11T03:50:48.079Z,4.80
2017-11-11T03:53:15.514Z,4.80
2017-11-11T03:55:42.985Z,4.80
2017-11-11T03:58:10.421Z,4.80
2017-11-11T04:00:37.875Z,4.80
2017-11-11T04:03:05.309Z,4.80
2017-11-11T04:05:32.768Z,4.80
2017-11-11T04:08:00.218Z,4.80
2017-11-11T04:10:27.681Z,4.90
2017-11-11T04:12:55.111Z,4.80
2017-11-11T04:15:22.563Z,4.90
2017-11-11T04:17:50.009Z,4.80
2017-11-11T04:20:17.469Z,4.80
2017-11-11T04:22:45.680Z,4.80
2017-11-11T04:25:14.007Z,4.90
2017-11-11T04:27:41.462Z,4.80
2017-11-11T04:30:08.889Z,4.80
2017-11-11T04:32:37.129Z,4.90
2017-11-11T04:35:04.586Z,4.90
2017-11-11T04:37:32.025Z,4.90
2017-11-11T04:40:00.273Z,4.90
2017-11-11T04:42:27.717Z,4.80
2017-11-11T04:44:55.309Z,4.80
2017-11-11T04:47:22.757Z,4.80
2017-11-11T04:49:50.978Z,4.90
2017-11-11T04:52:18.438Z,4.90
2017-11-11T04:54:45.871Z,4.90
2017-11-11T04:57:13.328Z,4.90
2017-11-11T04:59:40.865Z,4.90
2017-11-11T05:02:09.081Z,4.90
2017-11-11T05:04:36.540Z,4.90
2017-11-11T05:07:08.178Z,4.90
2017-11-11T05:09:36.425Z,4.80
2017-11-11T05:12:03.882Z,4.80
2017-11-11T05:14:31.961Z,4.80
2017-11-11T05:16:59.409Z,4.80
2017-11-11T05:19:27.629Z,4.90
2017-11-11T05:21:55.082Z,4.80
2017-11-11T05:24:23.335Z,4.80
2017-11-11T05:26:50.789Z,4.80
2017-11-11T05:29:18.250Z,4.80
2017-11-11T05:31:45.728Z,4.90
2017-11-11T05:34:13.173Z,4.90
2017-11-11T05:36:41.424Z,4.80
2017-11-11T05:39:08.974Z,4.70
2017-11-11T05:41:36.436Z,4.80
2017-11-11T05:44:03.897Z,4.70
2017-11-11T05:46:32.145Z,4.70
2017-11-11T05:48:59.653Z,4.70
2017-11-11T05:51:27.902Z,4.80
2017-11-11T05:53:55.380Z,4.80
2017-11-11T05:56:22.819Z,4.80
2017-11-11T05:58:50.272Z,4.80
2017-11-11T06:01:18.468Z,4.90
2017-11-11T06:03:47.661Z,4.90
2017-11-11T06:06:15.205Z,4.90
2017-11-11T06:08:42.671Z,4.90
2017-11-11T06:11:10.149Z,5.00
2017-11-11T06:13:37.678Z,4.90
2017-11-11T06:16:05.141Z,5.00
2017-11-11T06:18:32.605Z,4.90
2017-11-11T06:21:00.068Z,5.00
2017-11-11T06:23:27.512Z,4.90
2017-11-11T06:25:54.988Z,4.90
2017-11-11T06:28:22.439Z,5.00
2017-11-11T06:30:50.681Z,5.00
2017-11-11T06:33:18.133Z,5.00
2017-11-11T06:35:45.635Z,5.00
2017-11-11T06:38:13.123Z,5.00
2017-11-11T06:40:40.596Z,5.00
2017-11-11T06:43:08.081Z,5.00
2017-11-11T06:45:35.529Z,5.10
2017-11-11T06:48:02.993Z,5.10
2017-11-11T06:50:30.433Z,5.10
2017-11-11T06:52:57.895Z,5.10
2017-11-11T06:55:25.340Z,5.20
2017-11-11T06:57:52.814Z,5.20
2017-11-11T07:00:20.253Z,5.20
2017-11-11T07:02:47.700Z,5.20
2017-11-11T07:05:15.917Z,5.20
2017-11-11T07:07:43.362Z,5.20
2017-11-11T07:10:15.721Z,5.30
2017-11-11T07:12:44.058Z,5.30
2017-11-11T07:15:11.526Z,5.40
2017-11-11T07:17:39.408Z,5.40
2017-11-11T07:20:07.633Z,5.50
2017-11-11T07:22:35.078Z,5.40
2017-11-11T07:25:02.552Z,5.50
2017-11-11T07:27:30.758Z,5.50
2017-11-11T07:29:58.186Z,5.50
2017-11-11T07:32:25.676Z,5.50
2017-11-11T07:34:53.896Z,5.60
2017-11-11T07:37:21.398Z,5.60
2017-11-11T07:39:48.820Z,5.60
2017-11-11T07:42:17.063Z,5.60
2017-11-11T07:44:44.524Z,5.60
2017-11-11T07:47:12.691Z,5.70
2017-11-11T07:49:40.917Z,5.70
2017-11-11T07:52:08.341Z,5.70
2017-11-11T07:54:35.801Z,5.70
2017-11-11T07:57:03.333Z,5.80
2017-11-11T07:59:30.798Z,5.90
2017-11-11T08:01:58.244Z,6.00
2017-11-11T08:04:26.491Z,6.10
2017-11-11T08:06:53.920Z,6.10
2017-11-11T08:09:22.130Z,6.20
2017-11-11T08:11:49.606Z,6.20
2017-11-11T08:14:17.218Z,6.30
2017-11-11T08:16:44.666Z,6.30
2017-11-11T08:19:12.094Z,6.40
2017-11-11T08:21:39.556Z,6.30
2017-11-11T08:24:07.037Z,6.40
2017-11-11T08:26:34.536Z,6.40
2017-11-11T08:29:01.961Z,6.50
2017-11-11T08:31:29.432Z,6.60
2017-11-11T08:33:56.884Z,6.60
2017-11-11T08:36:24.315Z,6.70
2017-11-11T08:38:51.777Z,6.70
2017-11-11T08:41:19.225Z,6.70
2017-11-11T08:43:46.703Z,6.70
2017-11-11T08:46:14.147Z,6.70
2017-11-11T08:48:42.366Z,6.70
2017-11-11T08:51:09.850Z,6.70
2017-11-11T08:53:37.421Z,6.70
2017-11-11T08:56:04.854Z,6.80
2017-11-11T08:58:33.097Z,6.80
2017-11-11T09:01:00.556Z,6.80
2017-11-11T09:03:28.017Z,6.80
2017-11-11T09:05:55.482Z,6.80
2017-11-11T09:08:23.682Z,6.70
2017-11-11T09:10:51.241Z,6.70
2017-11-11T09:13:19.469Z,6.60
2017-11-11T09:15:46.922Z,6.50
2017-11-11T09:18:14.368Z,6.60
2017-11-11T09:20:41.853Z,6.50
2017-11-11T09:23:10.105Z,6.50
2017-11-11T09:25:37.541Z,6.60
2017-11-11T09:28:05.063Z,6.50
2017-11-11T09:30:36.878Z,6.60
2017-11-11T09:33:05.107Z,6.40
2017-11-11T09:35:32.650Z,6.40
2017-11-11T09:38:00.906Z,6.30
2017-11-11T09:40:28.341Z,6.30
2017-11-11T09:42:55.903Z,6.20
2017-11-11T09:45:23.365Z,6.30
2017-11-11T09:47:51.609Z,6.30
2017-11-11T09:50:19.047Z,6.30
2017-11-11T09:52:48.118Z,6.40
2017-11-11T09:55:15.590Z,6.40
2017-11-11T09:57:43.949Z,6.40
2017-11-11T10:00:11.453Z,6.30
2017-11-11T10:02:38.911Z,6.30
2017-11-11T10:05:06.373Z,6.30
2017-11-11T10:07:33.845Z,6.30
2017-11-11T10:10:01.330Z,6.30
2017-11-11T10:12:28.771Z,6.40
2017-11-11T10:14:56.238Z,6.40
2017-11-11T10:17:24.453Z,6.40
2017-11-11T10:19:51.947Z,6.40
2017-11-11T10:22:19.393Z,6.40
2017-11-11T10:24:46.870Z,6.40
2017-11-11T10:27:14.325Z,6.40
2017-11-11T10:29:42.444Z,6.40
2017-11-11T10:32:09.905Z,6.40
2017-11-11T10:34:37.380Z,6.40
2017-11-11T10:37:04.856Z,6.50
2017-11-11T10:39:32.304Z,6.60
2017-11-11T10:42:00.526Z,6.60
2017-11-11T10:44:27.985Z,6.60
2017-11-11T10:46:56.217Z,6.60
2017-11-11T10:49:23.693Z,6.70
2017-11-11T10:51:51.143Z,6.60
2017-11-11T10:54:19.099Z,6.70
2017-11-11T10:56:46.542Z,6.80
2017-11-11T10:59:14.018Z,6.90
2017-11-11T11:01:41.468Z,6.90
2017-11-11T11:07:03.198Z,6.90
2017-11-11T11:09:43.442Z,6.90
2017-11-11T11:12:11.090Z,6.80
2017-11-11T11:14:38.543Z,6.90
2017-11-11T11:17:06.022Z,6.90
2017-11-11T11:19:33.478Z,6.90
2017-11-11T11:22:00.963Z,6.90
2017-11-11T11:24:28.481Z,7.00
2017-11-11T11:26:55.911Z,7.00
2017-11-11T11:29:23.372Z,7.10
2017-11-11T11:31:51.590Z,7.10
2017-11-11T11:34:19.057Z,7.10
2017-11-11T11:36:46.505Z,7.20
2017-11-11T11:39:14.783Z,7.10
2017-11-11T11:41:42.217Z,7.20
2017-11-11T11:44:09.681Z,7.20
2017-11-11T11:46:37.120Z,7.20
2017-11-11T11:49:05.358Z,7.20
2017-11-11T11:51:32.825Z,7.20
2017-11-11T11:54:00.257Z,7.10
2017-11-11T11:56:27.713Z,7.10
2017-11-11T11:58:55.160Z,7.10
2017-11-11T12:01:22.632Z,7.00
2017-11-11T12:03:50.070Z,7.00
2017-11-11T12:06:18.275Z,7.10
2017-11-11T12:08:45.731Z,7.00
2017-11-11T12:11:13.944Z,7.20
2017-11-11T12:13:41.413Z,7.10
2017-11-11T12:16:09.513Z,7.20
2017-11-11T12:18:36.990Z,7.20
2017-11-11T12:21:04.419Z,7.20
2017-11-11T12:23:32.140Z,7.30
2017-11-11T12:26:00.338Z,7.20
2017-11-11T12:28:27.802Z,7.20
2017-11-11T12:30:55.282Z,7.20
2017-11-11T12:33:22.753Z,7.20
2017-11-11T12:35:50.205Z,7.20
2017-11-11T12:38:17.668Z,7.20
2017-11-11T12:40:45.108Z,7.30
2017-11-11T12:43:12.629Z,7.30
2017-11-11T12:45:40.854Z,7.20
2017-11-11T12:48:08.317Z,7.20
2017-11-11T12:50:35.811Z,7.20
2017-11-11T12:53:03.278Z,7.20
2017-11-11T12:55:30.760Z,7.10
2017-11-11T12:57:58.234Z,7.20
2017-11-11T13:00:25.694Z,7.20
2017-11-11T13:02:53.560Z,7.30
2017-11-11T13:05:21.776Z,7.30
2017-11-11T13:07:49.261Z,7.30
2017-11-11T13:10:16.724Z,7.30
2017-11-11T13:12:44.178Z,7.30
2017-11-11T13:15:12.385Z,7.20
2017-11-11T13:17:39.850Z,7.30
2017-11-11T13:20:08.081Z,7.20
2017-11-11T13:22:35.530Z,7.20
2017-11-11T13:25:03.020Z,7.20
2017-11-11T13:27:30.475Z,7.20
2017-11-11T13:29:57.932Z,7.20
2017-11-11T13:32:26.191Z,7.20
2017-11-11T13:34:53.602Z,7.20
2017-11-11T13:37:21.837Z,7.20
2017-11-11T13:39:49.270Z,7.20
2017-11-11T13:42:18.350Z,7.30
2017-11-11T13:44:45.856Z,7.20
2017-11-11T13:47:14.067Z,7.30
2017-11-11T13:49:41.516Z,7.20
2017-11-11T13:52:08.971Z,7.30
2017-11-11T13:54:36.414Z,7.30
2017-11-11T13:57:03.865Z,7.30
2017-11-11T13:59:31.325Z,7.40
2017-11-11T14:02:00.225Z,7.30
2017-11-11T14:04:27.653Z,7.30
2017-11-11T14:06:55.119Z,7.40
2017-11-11T14:09:22.686Z,7.40
2017-11-11T14:11:50.139Z,7.40
2017-11-11T14:14:17.719Z,7.40
2017-11-11T14:16:45.300Z,7.40
2017-11-11T14:19:12.781Z,7.40
2017-11-11T14:21:41.175Z,7.40
2017-11-11T14:24:08.612Z,7.50
2017-11-11T14:26:36.079Z,7.50
2017-11-11T14:29:03.528Z,7.50
2017-11-11T14:31:31.075Z,7.50
2017-11-11T14:33:58.549Z,7.50
2017-11-11T14:36:26.014Z,7.60
2017-11-11T14:38:53.450Z,7.60
2017-11-11T14:41:20.898Z,7.60
2017-11-11T14:43:48.421Z,7.60
2017-11-11T14:46:16.637Z,7.70
2017-11-11T14:48:44.107Z,7.60
2017-11-11T14:51:11.544Z,7.60
2017-11-11T14:53:39.026Z,7.70
2017-11-11T14:56:06.464Z,7.70
2017-11-11T14:58:33.946Z,7.70
2017-11-11T15:01:01.407Z,7.70
2017-11-11T15:03:28.877Z,7.70
2017-11-11T15:05:56.877Z,7.70
2017-11-11T15:08:24.323Z,7.80
2017-11-11T15:10:51.791Z,7.80
2017-11-11T15:13:19.254Z,7.80
2017-11-11T15:15:47.486Z,7.80
2017-11-11T15:18:15.054Z,7.70
2017-11-11T15:20:42.536Z,7.80
2017-11-11T15:23:09.990Z,7.80
2017-11-11T15:25:37.468Z,7.80
2017-11-11T15:28:05.011Z,7.80
2017-11-11T15:30:33.351Z,7.80
2017-11-11T15:33:00.817Z,7.90
2017-11-11T15:35:28.313Z,7.90
2017-11-11T15:37:55.816Z,8.00
2017-11-11T15:40:23.362Z,8.00
2017-11-11T15:42:50.892Z,8.10
2017-11-11T15:45:19.093Z,8.00
2017-11-11T15:47:47.315Z,8.00
2017-11-11T15:50:14.800Z,8.00
2017-11-11T15:52:42.765Z,8.00
2017-11-11T15:55:10.199Z,8.00
2017-11-11T15:57:37.667Z,7.90
2017-11-11T16:00:05.126Z,8.00
2017-11-11T16:02:32.644Z,8.10
2017-11-11T16:05:01.014Z,8.20
2017-11-11T16:07:28.481Z,8.10
2017-11-11T16:09:55.925Z,8.20
2017-11-11T16:12:23.452Z,8.20
2017-11-11T16:14:50.921Z,8.30
2017-11-11T16:17:18.389Z,8.20
2017-11-11T16:19:45.858Z,8.10
2017-11-11T16:22:13.342Z,8.20
2017-11-11T16:24:40.796Z,8.10
2017-11-11T16:27:08.260Z,8.20
2017-11-11T16:29:35.717Z,8.10
2017-11-11T16:32:03.188Z,8.20
2017-11-11T16:34:30.650Z,8.10
2017-11-11T16:36:58.094Z,8.20
2017-11-11T16:39:25.562Z,8.30
2017-11-11T16:41:53.086Z,8.20
2017-11-11T16:44:20.536Z,8.30
2017-11-11T16:46:48.789Z,8.20
2017-11-11T16:49:16.295Z,8.20
2017-11-11T16:51:44.757Z,8.10
2017-11-11T16:54:12.232Z,8.20
2017-11-11T16:56:39.714Z,8.20
2017-11-11T16:59:07.164Z,8.20
2017-11-11T17:01:34.615Z,8.30
2017-11-11T17:04:02.096Z,8.10
2017-11-11T17:06:30.359Z,8.20
2017-11-11T17:08:57.865Z,8.10
2017-11-11T17:11:25.418Z,8.20
2017-11-11T17:13:53.645Z,8.20
2017-11-11T17:16:21.074Z,8.20
2017-11-11T17:18:48.582Z,8.20
2017-11-11T17:21:16.042Z,8.30
2017-11-11T17:23:44.274Z,8.20
2017-11-11T17:26:15.627Z,8.20
2017-11-11T17:28:43.138Z,8.20
2017-11-11T17:31:10.601Z,8.10
2017-11-11T17:33:38.112Z,8.20
2017-11-11T17:36:05.586Z,8.20
2017-11-11T17:38:33.120Z,8.30
2017-11-11T17:41:00.609Z,8.30
2017-11-11T17:43:28.092Z,8.30
2017-11-11T17:45:55.549Z,8.40
2017-11-11T17:48:23.605Z,8.40
2017-11-11T17:50:51.149Z,8.30
2017-11-11T17:53:18.726Z,8.20
2017-11-11T17:55:46.158Z,8.30
2017-11-11T17:58:14.369Z,8.20
2017-11-11T18:00:41.828Z,8.10
2017-11-11T18:03:09.296Z,8.10
2017-11-11T18:05:36.743Z,8.10
2017-11-11T18:08:04.988Z,8.20
2017-11-11T18:10:32.429Z,8.20
2017-11-11T18:12:59.913Z,8.20
2017-11-11T18:15:27.392Z,8.30
2017-11-11T18:17:54.876Z,8.30
2017-11-11T18:20:22.466Z,8.20
2017-11-11T18:22:49.912Z,8.20
2017-11-11T18:25:17.408Z,8.30
2017-11-11T18:27:44.896Z,8.20
2017-11-11T18:30:12.344Z,8.20
2017-11-11T18:32:39.798Z,8.20
2017-11-11T18:35:09.115Z,8.20
2017-11-11T18:37:36.654Z,8.10
2017-11-11T18:40:04.124Z,8.20
2017-11-11T18:42:31.578Z,8.10
2017-11-11T18:44:59.867Z,8.00
2017-11-11T18:47:27.355Z,8.00
2017-11-11T18:49:54.868Z,7.90
2017-11-11T18:52:23.077Z,8.00
2017-11-11T18:54:50.553Z,8.00
2017-11-11T18:57:19.290Z,8.00
2017-11-11T18:59:46.831Z,7.90
2017-11-11T19:02:15.093Z,7.90
2017-11-11T19:04:42.536Z,8.00
2017-11-11T19:07:09.974Z,8.00
2017-11-11T19:09:37.614Z,7.90
2017-11-11T19:12:05.066Z,8.00
2017-11-11T19:14:32.626Z,7.80
2017-11-11T19:17:00.061Z,7.80
2017-11-11T19:19:28.293Z,7.70
2017-11-11T19:21:55.754Z,7.70
2017-11-11T19:24:23.277Z,7.50
2017-11-11T19:26:50.843Z,7.50
2017-11-11T19:29:18.287Z,7.50
2017-11-11T19:31:45.831Z,7.50
2017-11-11T19:34:14.131Z,7.50
2017-11-11T19:36:41.664Z,7.50
2017-11-11T19:39:09.132Z,7.50
2017-11-11T19:41:37.212Z,7.50
2017-11-11T19:44:04.669Z,7.70
2017-11-11T19:46:32.421Z,7.80
2017-11-11T19:49:01.028Z,7.80
2017-11-11T19:51:29.401Z,7.80
2017-11-11T19:53:57.640Z,7.80
2017-11-11T19:56:25.117Z,7.80
2017-11-11T19:58:53.582Z,7.80
2017-11-11T20:01:21.857Z,7.60
2017-11-11T20:03:49.577Z,7.60
2017-11-11T20:06:17.096Z,7.50
2017-11-11T20:08:44.637Z,7.50
2017-11-11T20:11:12.124Z,7.50
2017-11-11T20:13:39.973Z,7.60
2017-11-11T20:16:08.203Z,7.60
2017-11-11T20:18:35.700Z,7.60
2017-11-11T20:21:03.981Z,7.40
2017-11-11T20:23:31.526Z,7.30
2017-11-11T20:25:59.231Z,7.30
2017-11-11T20:28:26.787Z,7.30
2017-11-11T20:30:54.273Z,7.40
2017-11-11T20:33:23.261Z,7.40
2017-11-11T20:35:51.538Z,7.40
2017-11-11T20:38:19.978Z,7.40
2017-11-11T20:40:48.073Z,7.50
2017-11-11T20:43:15.546Z,7.40
2017-11-11T20:45:43.009Z,7.40
2017-11-11T20:48:10.490Z,7.40
2017-11-11T20:50:38.003Z,7.40
2017-11-11T20:53:05.535Z,7.40
2017-11-11T20:55:33.552Z,7.40
2017-11-11T20:58:01.010Z,7.40
2017-11-11T21:00:29.481Z,7.50
2017-11-11T21:02:57.694Z,7.50
2017-11-11T21:05:25.170Z,7.50
2017-11-11T21:07:53.345Z,7.40
2017-11-11T21:10:20.829Z,7.50
2017-11-11T21:12:48.313Z,7.40
2017-11-11T21:15:15.782Z,7.60
2017-11-11T21:17:43.214Z,7.60
2017-11-11T21:20:11.988Z,7.70
2017-11-11T21:22:39.967Z,7.70
2017-11-11T21:25:07.493Z,7.60
2017-11-11T21:27:35.759Z,7.50
2017-11-11T21:30:03.613Z,7.50
2017-11-11T21:32:31.057Z,7.30
2017-11-11T21:34:58.548Z,7.30
2017-11-11T21:37:26.070Z,7.20
2017-11-11T21:39:53.608Z,7.10
2017-11-11T21:42:21.653Z,7.00
2017-11-11T21:44:50.360Z,6.90
2017-11-11T21:47:19.115Z,6.90
2017-11-11T21:49:46.570Z,6.90
2017-11-11T21:52:14.141Z,6.80
2017-11-11T21:54:42.362Z,6.60
2017-11-11T21:57:09.852Z,6.60
2017-11-11T21:59:37.334Z,6.60
2017-11-11T22:02:05.768Z,6.60
2017-11-11T22:04:33.643Z,6.50
2017-11-11T22:07:02.251Z,6.60
2017-11-11T22:09:30.471Z,6.60
2017-11-11T22:12:02.633Z,6.60
2017-11-11T22:14:30.073Z,6.60
2017-11-11T22:16:57.567Z,6.50
2017-11-11T22:19:25.815Z,6.50
2017-11-11T22:21:53.382Z,6.40
2017-11-11T22:24:20.826Z,6.50
2017-11-11T22:26:48.281Z,6.60
2017-11-11T22:29:16.600Z,6.80
2017-11-11T22:31:44.275Z,6.70
2017-11-11T22:34:11.735Z,6.80
2017-11-11T22:36:40.026Z,6.80
2017-11-11T22:39:08.245Z,6.80
2017-11-11T22:41:35.716Z,6.70
2017-11-11T22:44:03.149Z,6.70
2017-11-11T22:46:30.624Z,6.80
2017-11-11T22:48:58.073Z,6.70
2017-11-11T22:51:25.523Z,6.70
2017-11-11T22:53:53.038Z,6.80
2017-11-11T22:56:20.499Z,6.80
2017-11-11T22:58:47.942Z,6.60
2017-11-11T23:01:15.402Z,6.80
2017-11-11T23:03:42.859Z,6.80
2017-11-11T23:06:11.138Z,6.80
2017-11-11T23:08:38.575Z,6.80
2017-11-11T23:11:06.059Z,6.80
2017-11-11T23:13:37.812Z,6.80
2017-11-11T23:16:05.290Z,6.80
2017-11-11T23:18:32.732Z,6.80
2017-11-11T23:21:00.947Z,6.70
2017-11-11T23:23:29.059Z,6.70
2017-11-11T23:25:56.505Z,6.50
2017-11-11T23:28:24.006Z,6.50
2017-11-11T23:30:51.442Z,6.40
2017-11-11T23:33:19.648Z,6.50
2017-11-11T23:35:47.108Z,6.50
2017-11-11T23:38:15.429Z,6.60
2017-11-11T23:40:42.873Z,6.60
2017-11-11T23:43:11.161Z,6.60
2017-11-11T23:45:39.390Z,6.60
2017-11-11T23:48:06.825Z,6.60
2017-11-11T23:50:35.055Z,6.70
2017-11-11T23:53:02.493Z,6.70
2017-11-11T23:55:30.721Z,6.70
2017-11-11T23:57:58.161Z,6.70
